sensor_id;sensor_type;location;lat;lon;timestamp;temperature;humidity
12720;DHT22;6424;48.520;11.228;2024-02-14T00:00:18;1.30;99.90
12720;DHT22;6424;48.520;11.228;2024-02-14T00:03:03;1.30;99.90
12720;DHT22;6424;48.520;11.228;2024-02-14T00:05:47;1.30;99.90
12720;DHT22;6424;48.520;11.228;2024-02-14T00:08:32;1.30;99.90
12720;DHT22;6424;48.520;11.228;2024-02-14T00:11:16;1.30;99.90
12720;DHT22;6424;48.520;11.228;2024-02-14T00:14:01;1.30;99.90
12720;DHT22;6424;48.520;11.228;2024-02-14T00:16:45;1.30;99.90
12720;DHT22;6424;48.520;11.228;2024-02-14T00:19:29;1.30;99.90
12720;DHT22;6424;48.520;11.228;2024-02-14T00:22:14;1.30;99.90
12720;DHT22;6424;48.520;11.228;2024-02-14T00:24:58;1.30;99.90
12720;DHT22;6424;48.520;11.228;2024-02-14T00:27:42;1.20;99.90
12720;DHT22;6424;48.520;11.228;2024-02-14T00:30:27;1.20;99.90
12720;DHT22;6424;48.520;11.228;2024-02-14T00:33:11;1.20;99.90
12720;DHT22;6424;48.520;11.228;2024-02-14T00:35:55;1.20;99.90
12720;DHT22;6424;48.520;11.228;2024-02-14T00:38:39;1.10;99.90
12720;DHT22;6424;48.520;11.228;2024-02-14T00:41:24;1.10;99.90
12720;DHT22;6424;48.520;11.228;2024-02-14T00:44:09;1.10;99.90
12720;DHT22;6424;48.520;11.228;2024-02-14T00:46:59;1.10;99.90
12720;DHT22;6424;48.520;11.228;2024-02-14T00:49:45;1.10;99.90
12720;DHT22;6424;48.520;11.228;2024-02-14T00:52:30;1.10;99.90
12720;DHT22;6424;48.520;11.228;2024-02-14T00:55:14;1.10;99.90
12720;DHT22;6424;48.520;11.228;2024-02-14T00:57:59;1.20;99.90
12720;DHT22;6424;48.520;11.228;2024-02-14T01:00:43;1.20;99.90
12720;DHT22;6424;48.520;11.228;2024-02-14T01:03:28;1.20;99.90
12720;DHT22;6424;48.520;11.228;2024-02-14T01:06:12;1.20;99.90
12720;DHT22;6424;48.520;11.228;2024-02-14T01:08:58;1.30;99.90
12720;DHT22;6424;48.520;11.228;2024-02-14T01:11:42;1.20;99.90
12720;DHT22;6424;48.520;11.228;2024-02-14T01:14:26;1.30;99.90
12720;DHT22;6424;48.520;11.228;2024-02-14T01:17:10;1.40;99.90
12720;DHT22;6424;48.520;11.228;2024-02-14T01:19:55;1.50;99.90
12720;DHT22;6424;48.520;11.228;2024-02-14T01:22:39;1.50;99.90
12720;DHT22;6424;48.520;11.228;2024-02-14T01:25:26;1.60;99.90
12720;DHT22;6424;48.520;11.228;2024-02-14T01:28:10;1.60;99.90
12720;DHT22;6424;48.520;11.228;2024-02-14T01:30:56;1.60;99.90
12720;DHT22;6424;48.520;11.228;2024-02-14T01:33:40;1.60;99.90
12720;DHT22;6424;48.520;11.228;2024-02-14T01:36:25;1.50;99.90
12720;DHT22;6424;48.520;11.228;2024-02-14T01:39:09;1.50;99.90
12720;DHT22;6424;48.520;11.228;2024-02-14T01:41:55;1.40;99.90
12720;DHT22;6424;48.520;11.228;2024-02-14T01:44:39;1.40;99.90
12720;DHT22;6424;48.520;11.228;2024-02-14T01:47:25;1.30;99.90
12720;DHT22;6424;48.520;11.228;2024-02-14T01:50:10;1.30;99.90
12720;DHT22;6424;48.520;11.228;2024-02-14T01:53:00;1.30;99.90
12720;DHT22;6424;48.520;11.228;2024-02-14T01:55:45;1.30;99.90
12720;DHT22;6424;48.520;11.228;2024-02-14T01:58:30;1.30;99.90
12720;DHT22;6424;48.520;11.228;2024-02-14T02:01:15;1.30;99.90
12720;DHT22;6424;48.520;11.228;2024-02-14T02:04:04;1.30;99.90
12720;DHT22;6424;48.520;11.228;2024-02-14T02:06:48;1.30;99.90
12720;DHT22;6424;48.520;11.228;2024-02-14T02:09:32;1.40;99.90
12720;DHT22;6424;48.520;11.228;2024-02-14T02:12:17;1.40;99.90
12720;DHT22;6424;48.520;11.228;2024-02-14T02:15:01;1.40;99.90
12720;DHT22;6424;48.520;11.228;2024-02-14T02:17:46;1.40;99.90
12720;DHT22;6424;48.520;11.228;2024-02-14T02:20:36;1.50;99.90
12720;DHT22;6424;48.520;11.228;2024-02-14T02:23:21;1.50;99.90
12720;DHT22;6424;48.520;11.228;2024-02-14T02:26:05;1.50;99.90
12720;DHT22;6424;48.520;11.228;2024-02-14T02:28:49;1.50;99.90
12720;DHT22;6424;48.520;11.228;2024-02-14T02:31:33;1.50;99.90
12720;DHT22;6424;48.520;11.228;2024-02-14T02:34:18;1.50;99.90
12720;DHT22;6424;48.520;11.228;2024-02-14T02:37:03;1.50;99.90
12720;DHT22;6424;48.520;11.228;2024-02-14T02:39:50;1.60;99.90
12720;DHT22;6424;48.520;11.228;2024-02-14T02:42:35;1.60;99.90
12720;DHT22;6424;48.520;11.228;2024-02-14T02:45:19;1.60;99.90
12720;DHT22;6424;48.520;11.228;2024-02-14T02:48:04;1.60;99.90
12720;DHT22;6424;48.520;11.228;2024-02-14T02:50:49;1.60;99.90
12720;DHT22;6424;48.520;11.228;2024-02-14T02:53:33;1.60;99.90
12720;DHT22;6424;48.520;11.228;2024-02-14T02:56:19;1.60;99.90
12720;DHT22;6424;48.520;11.228;2024-02-14T02:59:06;1.60;99.90
12720;DHT22;6424;48.520;11.228;2024-02-14T03:01:50;1.60;99.90
12720;DHT22;6424;48.520;11.228;2024-02-14T03:04:34;1.60;99.90
12720;DHT22;6424;48.520;11.228;2024-02-14T03:07:19;1.60;99.90
12720;DHT22;6424;48.520;11.228;2024-02-14T03:10:05;1.60;99.90
12720;DHT22;6424;48.520;11.228;2024-02-14T03:12:49;1.60;99.90
12720;DHT22;6424;48.520;11.228;2024-02-14T03:15:33;1.60;99.90
12720;DHT22;6424;48.520;11.228;2024-02-14T03:18:17;1.60;99.90
12720;DHT22;6424;48.520;11.228;2024-02-14T03:21:02;1.60;99.90
12720;DHT22;6424;48.520;11.228;2024-02-14T03:23:46;1.60;99.90
12720;DHT22;6424;48.520;11.228;2024-02-14T03:26:31;1.50;99.90
12720;DHT22;6424;48.520;11.228;2024-02-14T03:29:19;1.50;99.90
12720;DHT22;6424;48.520;11.228;2024-02-14T03:32:04;1.50;99.90
12720;DHT22;6424;48.520;11.228;2024-02-14T03:34:48;1.50;99.90
12720;DHT22;6424;48.520;11.228;2024-02-14T03:37:33;1.50;99.90
12720;DHT22;6424;48.520;11.228;2024-02-14T03:40:17;1.50;99.90
12720;DHT22;6424;48.520;11.228;2024-02-14T03:43:04;1.50;99.90
12720;DHT22;6424;48.520;11.228;2024-02-14T03:45:49;1.50;99.90
12720;DHT22;6424;48.520;11.228;2024-02-14T03:48:35;1.60;99.90
12720;DHT22;6424;48.520;11.228;2024-02-14T03:51:20;1.70;99.90
12720;DHT22;6424;48.520;11.228;2024-02-14T03:54:05;1.80;99.90
12720;DHT22;6424;48.520;11.228;2024-02-14T03:56:49;1.90;99.90
12720;DHT22;6424;48.520;11.228;2024-02-14T03:59:36;2.00;99.90
12720;DHT22;6424;48.520;11.228;2024-02-14T04:02:21;2.10;99.90
12720;DHT22;6424;48.520;11.228;2024-02-14T04:05:06;2.30;99.90
12720;DHT22;6424;48.520;11.228;2024-02-14T04:07:51;2.50;99.90
12720;DHT22;6424;48.520;11.228;2024-02-14T04:10:36;2.60;99.90
12720;DHT22;6424;48.520;11.228;2024-02-14T04:13:21;2.70;99.90
12720;DHT22;6424;48.520;11.228;2024-02-14T04:16:05;2.70;99.90
12720;DHT22;6424;48.520;11.228;2024-02-14T04:18:50;2.80;99.90
12720;DHT22;6424;48.520;11.228;2024-02-14T04:21:34;2.80;99.90
12720;DHT22;6424;48.520;11.228;2024-02-14T04:24:18;2.80;99.90
12720;DHT22;6424;48.520;11.228;2024-02-14T04:27:03;2.80;99.90
12720;DHT22;6424;48.520;11.228;2024-02-14T04:29:48;2.90;99.90
12720;DHT22;6424;48.520;11.228;2024-02-14T04:32:32;2.90;99.90
12720;DHT22;6424;48.520;11.228;2024-02-14T04:35:16;2.90;99.90
12720;DHT22;6424;48.520;11.228;2024-02-14T04:38:01;3.00;99.90
12720;DHT22;6424;48.520;11.228;2024-02-14T04:40:47;2.90;99.90
12720;DHT22;6424;48.520;11.228;2024-02-14T04:43:31;2.90;99.90
12720;DHT22;6424;48.520;11.228;2024-02-14T04:46:16;2.90;99.90
12720;DHT22;6424;48.520;11.228;2024-02-14T04:49:00;2.90;99.90
12720;DHT22;6424;48.520;11.228;2024-02-14T04:51:45;3.00;99.90
12720;DHT22;6424;48.520;11.228;2024-02-14T04:54:29;3.00;99.90
12720;DHT22;6424;48.520;11.228;2024-02-14T04:57:13;3.00;99.90
12720;DHT22;6424;48.520;11.228;2024-02-14T04:59:59;3.00;99.90
12720;DHT22;6424;48.520;11.228;2024-02-14T05:02:43;3.00;99.90
12720;DHT22;6424;48.520;11.228;2024-02-14T05:05:27;3.00;99.90
12720;DHT22;6424;48.520;11.228;2024-02-14T05:08:12;3.00;99.90
12720;DHT22;6424;48.520;11.228;2024-02-14T05:10:56;3.00;99.90
12720;DHT22;6424;48.520;11.228;2024-02-14T05:13:40;3.00;99.90
12720;DHT22;6424;48.520;11.228;2024-02-14T05:16:25;3.00;99.90
12720;DHT22;6424;48.520;11.228;2024-02-14T05:19:09;3.00;99.90
12720;DHT22;6424;48.520;11.228;2024-02-14T05:21:54;3.00;99.90
12720;DHT22;6424;48.520;11.228;2024-02-14T05:24:39;3.00;99.90
12720;DHT22;6424;48.520;11.228;2024-02-14T05:27:23;3.10;99.90
12720;DHT22;6424;48.520;11.228;2024-02-14T05:30:07;3.10;99.90
12720;DHT22;6424;48.520;11.228;2024-02-14T05:32:55;3.10;99.90
12720;DHT22;6424;48.520;11.228;2024-02-14T05:35:40;3.20;99.90
12720;DHT22;6424;48.520;11.228;2024-02-14T05:38:24;3.20;99.90
12720;DHT22;6424;48.520;11.228;2024-02-14T05:41:08;3.30;99.90
12720;DHT22;6424;48.520;11.228;2024-02-14T05:43:52;3.30;99.90
12720;DHT22;6424;48.520;11.228;2024-02-14T05:46:37;3.40;99.90
12720;DHT22;6424;48.520;11.228;2024-02-14T05:49:22;3.40;99.90
12720;DHT22;6424;48.520;11.228;2024-02-14T05:52:07;3.50;99.90
12720;DHT22;6424;48.520;11.228;2024-02-14T05:54:51;3.50;99.90
12720;DHT22;6424;48.520;11.228;2024-02-14T05:57:35;3.50;99.90
12720;DHT22;6424;48.520;11.228;2024-02-14T06:00:20;3.60;99.90
12720;DHT22;6424;48.520;11.228;2024-02-14T06:03:05;3.60;99.90
12720;DHT22;6424;48.520;11.228;2024-02-14T06:05:50;3.60;99.90
12720;DHT22;6424;48.520;11.228;2024-02-14T06:08:34;3.70;99.90
12720;DHT22;6424;48.520;11.228;2024-02-14T06:11:18;3.60;99.90
12720;DHT22;6424;48.520;11.228;2024-02-14T06:14:08;3.60;99.90
12720;DHT22;6424;48.520;11.228;2024-02-14T06:16:53;3.60;99.90
12720;DHT22;6424;48.520;11.228;2024-02-14T06:19:37;3.60;99.90
12720;DHT22;6424;48.520;11.228;2024-02-14T06:22:23;3.70;99.90
12720;DHT22;6424;48.520;11.228;2024-02-14T06:25:07;3.70;99.90
12720;DHT22;6424;48.520;11.228;2024-02-14T06:27:52;3.70;99.90
12720;DHT22;6424;48.520;11.228;2024-02-14T06:30:38;3.70;99.90
12720;DHT22;6424;48.520;11.228;2024-02-14T06:33:22;3.70;99.90
12720;DHT22;6424;48.520;11.228;2024-02-14T06:36:06;3.70;99.90
12720;DHT22;6424;48.520;11.228;2024-02-14T06:38:51;3.80;99.90
12720;DHT22;6424;48.520;11.228;2024-02-14T06:41:35;3.90;99.90
12720;DHT22;6424;48.520;11.228;2024-02-14T06:44:19;3.90;99.90
12720;DHT22;6424;48.520;11.228;2024-02-14T06:47:03;4.00;99.90
12720;DHT22;6424;48.520;11.228;2024-02-14T06:49:47;4.00;99.90
12720;DHT22;6424;48.520;11.228;2024-02-14T06:52:32;4.10;99.90
12720;DHT22;6424;48.520;11.228;2024-02-14T06:55:16;4.10;99.90
12720;DHT22;6424;48.520;11.228;2024-02-14T06:58:00;4.20;99.90
12720;DHT22;6424;48.520;11.228;2024-02-14T07:00:44;4.20;99.90
12720;DHT22;6424;48.520;11.228;2024-02-14T07:03:28;4.30;99.90
12720;DHT22;6424;48.520;11.228;2024-02-14T07:06:12;4.30;99.90
12720;DHT22;6424;48.520;11.228;2024-02-14T07:08:56;4.30;99.90
12720;DHT22;6424;48.520;11.228;2024-02-14T07:11:41;4.40;99.90
12720;DHT22;6424;48.520;11.228;2024-02-14T07:14:25;4.40;99.90
12720;DHT22;6424;48.520;11.228;2024-02-14T07:17:09;4.50;99.90
12720;DHT22;6424;48.520;11.228;2024-02-14T07:19:54;4.50;99.90
12720;DHT22;6424;48.520;11.228;2024-02-14T07:22:38;4.50;99.90
12720;DHT22;6424;48.520;11.228;2024-02-14T07:25:23;4.50;99.90
12720;DHT22;6424;48.520;11.228;2024-02-14T07:28:08;4.50;99.90
12720;DHT22;6424;48.520;11.228;2024-02-14T07:30:52;4.50;99.90
12720;DHT22;6424;48.520;11.228;2024-02-14T07:33:36;4.50;99.90
12720;DHT22;6424;48.520;11.228;2024-02-14T07:36:20;4.50;99.90
12720;DHT22;6424;48.520;11.228;2024-02-14T07:39:04;4.50;99.90
12720;DHT22;6424;48.520;11.228;2024-02-14T07:41:49;4.50;99.90
12720;DHT22;6424;48.520;11.228;2024-02-14T07:44:33;4.60;99.90
12720;DHT22;6424;48.520;11.228;2024-02-14T07:47:17;4.60;99.90
12720;DHT22;6424;48.520;11.228;2024-02-14T07:50:03;4.60;99.90
12720;DHT22;6424;48.520;11.228;2024-02-14T07:52:48;4.70;99.90
12720;DHT22;6424;48.520;11.228;2024-02-14T07:55:32;4.70;99.90
12720;DHT22;6424;48.520;11.228;2024-02-14T07:58:16;4.80;99.90
12720;DHT22;6424;48.520;11.228;2024-02-14T08:01:00;5.00;99.90
12720;DHT22;6424;48.520;11.228;2024-02-14T08:03:44;5.10;99.90
12720;DHT22;6424;48.520;11.228;2024-02-14T08:06:30;5.10;99.90
12720;DHT22;6424;48.520;11.228;2024-02-14T08:09:15;5.10;99.90
12720;DHT22;6424;48.520;11.228;2024-02-14T08:11:59;5.10;99.90
12720;DHT22;6424;48.520;11.228;2024-02-14T08:14:44;5.20;99.90
12720;DHT22;6424;48.520;11.228;2024-02-14T08:17:28;5.20;99.90
12720;DHT22;6424;48.520;11.228;2024-02-14T08:20:13;5.20;99.90
12720;DHT22;6424;48.520;11.228;2024-02-14T08:22:57;5.20;99.90
12720;DHT22;6424;48.520;11.228;2024-02-14T08:25:41;5.20;99.90
12720;DHT22;6424;48.520;11.228;2024-02-14T08:28:25;5.20;99.90
12720;DHT22;6424;48.520;11.228;2024-02-14T08:31:12;5.40;99.90
12720;DHT22;6424;48.520;11.228;2024-02-14T08:33:56;5.50;99.90
12720;DHT22;6424;48.520;11.228;2024-02-14T08:36:42;5.50;99.90
12720;DHT22;6424;48.520;11.228;2024-02-14T08:39:27;5.70;99.90
12720;DHT22;6424;48.520;11.228;2024-02-14T08:42:12;5.80;99.90
12720;DHT22;6424;48.520;11.228;2024-02-14T08:44:57;6.10;99.90
12720;DHT22;6424;48.520;11.228;2024-02-14T08:47:43;6.30;99.90
12720;DHT22;6424;48.520;11.228;2024-02-14T08:50:28;6.50;99.90
12720;DHT22;6424;48.520;11.228;2024-02-14T08:53:14;6.60;99.90
12720;DHT22;6424;48.520;11.228;2024-02-14T08:55:58;6.70;99.90
12720;DHT22;6424;48.520;11.228;2024-02-14T08:58:42;6.70;99.90
12720;DHT22;6424;48.520;11.228;2024-02-14T09:01:31;6.80;99.90
12720;DHT22;6424;48.520;11.228;2024-02-14T09:04:15;6.80;99.90
12720;DHT22;6424;48.520;11.228;2024-02-14T09:06:59;6.70;99.90
12720;DHT22;6424;48.520;11.228;2024-02-14T09:09:43;6.80;99.90
12720;DHT22;6424;48.520;11.228;2024-02-14T09:12:28;6.80;99.90
12720;DHT22;6424;48.520;11.228;2024-02-14T09:15:12;6.90;99.90
12720;DHT22;6424;48.520;11.228;2024-02-14T09:17:57;6.90;99.90
12720;DHT22;6424;48.520;11.228;2024-02-14T09:20:42;7.00;99.90
12720;DHT22;6424;48.520;11.228;2024-02-14T09:23:30;7.00;99.90
12720;DHT22;6424;48.520;11.228;2024-02-14T09:26:15;7.10;99.90
12720;DHT22;6424;48.520;11.228;2024-02-14T09:29:02;7.20;99.90
12720;DHT22;6424;48.520;11.228;2024-02-14T09:31:47;7.30;99.90
12720;DHT22;6424;48.520;11.228;2024-02-14T09:34:32;7.40;99.90
12720;DHT22;6424;48.520;11.228;2024-02-14T09:37:17;7.50;99.90
12720;DHT22;6424;48.520;11.228;2024-02-14T09:40:01;7.60;99.90
12720;DHT22;6424;48.520;11.228;2024-02-14T09:42:53;7.60;99.90
12720;DHT22;6424;48.520;11.228;2024-02-14T09:45:39;7.70;99.90
12720;DHT22;6424;48.520;11.228;2024-02-14T09:48:26;7.80;99.90
12720;DHT22;6424;48.520;11.228;2024-02-14T09:51:12;7.90;99.90
12720;DHT22;6424;48.520;11.228;2024-02-14T09:53:59;8.10;99.90
12720;DHT22;6424;48.520;11.228;2024-02-14T09:56:53;8.20;99.90
12720;DHT22;6424;48.520;11.228;2024-02-14T09:59:39;8.30;99.90
12720;DHT22;6424;48.520;11.228;2024-02-14T10:02:24;8.40;99.90
12720;DHT22;6424;48.520;11.228;2024-02-14T10:05:08;8.50;99.90
12720;DHT22;6424;48.520;11.228;2024-02-14T10:07:52;8.70;99.90
12720;DHT22;6424;48.520;11.228;2024-02-14T10:10:40;8.80;99.90
12720;DHT22;6424;48.520;11.228;2024-02-14T10:13:28;8.90;99.90
12720;DHT22;6424;48.520;11.228;2024-02-14T10:16:14;9.00;99.90
12720;DHT22;6424;48.520;11.228;2024-02-14T10:18:59;9.20;99.90
12720;DHT22;6424;48.520;11.228;2024-02-14T10:21:43;9.40;99.90
12720;DHT22;6424;48.520;11.228;2024-02-14T10:24:28;9.70;99.90
12720;DHT22;6424;48.520;11.228;2024-02-14T10:27:13;9.80;99.90
12720;DHT22;6424;48.520;11.228;2024-02-14T10:29:59;9.80;99.90
12720;DHT22;6424;48.520;11.228;2024-02-14T10:32:43;9.80;99.90
12720;DHT22;6424;48.520;11.228;2024-02-14T10:35:35;9.70;99.90
12720;DHT22;6424;48.520;11.228;2024-02-14T10:38:23;9.70;99.90
12720;DHT22;6424;48.520;11.228;2024-02-14T10:41:09;9.80;99.90
12720;DHT22;6424;48.520;11.228;2024-02-14T10:43:56;10.00;99.90
12720;DHT22;6424;48.520;11.228;2024-02-14T10:46:41;10.30;99.90
12720;DHT22;6424;48.520;11.228;2024-02-14T10:49:28;10.60;99.90
12720;DHT22;6424;48.520;11.228;2024-02-14T10:52:15;10.70;99.90
12720;DHT22;6424;48.520;11.228;2024-02-14T10:55:03;10.90;99.90
12720;DHT22;6424;48.520;11.228;2024-02-14T10:57:49;10.90;99.90
12720;DHT22;6424;48.520;11.228;2024-02-14T11:00:34;10.90;99.90
12720;DHT22;6424;48.520;11.228;2024-02-14T11:03:18;10.90;99.90
12720;DHT22;6424;48.520;11.228;2024-02-14T11:06:04;10.80;99.90
12720;DHT22;6424;48.520;11.228;2024-02-14T11:09:02;10.60;99.90
12720;DHT22;6424;48.520;11.228;2024-02-14T11:12:02;10.40;99.90
12720;DHT22;6424;48.520;11.228;2024-02-14T11:14:47;10.20;99.90
12720;DHT22;6424;48.520;11.228;2024-02-14T11:17:32;10.10;99.90
12720;DHT22;6424;48.520;11.228;2024-02-14T11:20:34;10.00;99.90
12720;DHT22;6424;48.520;11.228;2024-02-14T11:23:22;10.00;99.90
12720;DHT22;6424;48.520;11.228;2024-02-14T11:26:06;10.10;99.90
12720;DHT22;6424;48.520;11.228;2024-02-14T11:29:00;10.10;99.90
12720;DHT22;6424;48.520;11.228;2024-02-14T11:31:46;10.20;99.90
12720;DHT22;6424;48.520;11.228;2024-02-14T11:34:32;10.20;99.90
12720;DHT22;6424;48.520;11.228;2024-02-14T11:37:19;10.30;99.90
12720;DHT22;6424;48.520;11.228;2024-02-14T11:40:05;10.40;99.90
12720;DHT22;6424;48.520;11.228;2024-02-14T11:42:51;10.50;99.90
12720;DHT22;6424;48.520;11.228;2024-02-14T11:45:35;10.60;99.90
12720;DHT22;6424;48.520;11.228;2024-02-14T11:48:23;10.70;99.90
12720;DHT22;6424;48.520;11.228;2024-02-14T11:51:10;10.70;99.90
12720;DHT22;6424;48.520;11.228;2024-02-14T11:53:54;10.80;99.90
12720;DHT22;6424;48.520;11.228;2024-02-14T11:56:39;10.80;99.90
12720;DHT22;6424;48.520;11.228;2024-02-14T11:59:23;10.80;99.90
12720;DHT22;6424;48.520;11.228;2024-02-14T12:02:08;10.90;99.90
12720;DHT22;6424;48.520;11.228;2024-02-14T12:04:53;10.90;99.90
12720;DHT22;6424;48.520;11.228;2024-02-14T12:07:39;10.90;99.90
12720;DHT22;6424;48.520;11.228;2024-02-14T12:10:24;11.00;99.90
12720;DHT22;6424;48.520;11.228;2024-02-14T12:13:12;11.10;99.90
12720;DHT22;6424;48.520;11.228;2024-02-14T12:15:57;11.10;99.90
12720;DHT22;6424;48.520;11.228;2024-02-14T12:18:42;11.20;99.90
12720;DHT22;6424;48.520;11.228;2024-02-14T12:21:26;11.20;99.90
12720;DHT22;6424;48.520;11.228;2024-02-14T12:24:11;11.30;99.90
12720;DHT22;6424;48.520;11.228;2024-02-14T12:26:59;11.30;99.90
12720;DHT22;6424;48.520;11.228;2024-02-14T12:29:46;11.30;99.90
12720;DHT22;6424;48.520;11.228;2024-02-14T12:32:30;11.40;99.90
12720;DHT22;6424;48.520;11.228;2024-02-14T12:35:14;11.50;99.90
12720;DHT22;6424;48.520;11.228;2024-02-14T12:38:01;11.60;99.90
12720;DHT22;6424;48.520;11.228;2024-02-14T12:40:46;11.70;99.90
12720;DHT22;6424;48.520;11.228;2024-02-14T12:43:30;11.80;99.90
12720;DHT22;6424;48.520;11.228;2024-02-14T12:46:14;11.90;99.90
12720;DHT22;6424;48.520;11.228;2024-02-14T12:48:59;11.90;99.90
12720;DHT22;6424;48.520;11.228;2024-02-14T12:51:43;12.00;99.90
12720;DHT22;6424;48.520;11.228;2024-02-14T12:54:28;12.10;99.90
12720;DHT22;6424;48.520;11.228;2024-02-14T12:57:12;12.20;99.90
12720;DHT22;6424;48.520;11.228;2024-02-14T12:59:57;12.20;99.90
12720;DHT22;6424;48.520;11.228;2024-02-14T13:02:42;12.20;99.90
12720;DHT22;6424;48.520;11.228;2024-02-14T13:05:27;12.20;99.90
12720;DHT22;6424;48.520;11.228;2024-02-14T13:08:11;12.20;99.90
12720;DHT22;6424;48.520;11.228;2024-02-14T13:10:56;12.30;99.90
12720;DHT22;6424;48.520;11.228;2024-02-14T13:13:41;12.30;99.90
12720;DHT22;6424;48.520;11.228;2024-02-14T13:16:26;12.30;99.90
12720;DHT22;6424;48.520;11.228;2024-02-14T13:19:11;12.40;99.90
12720;DHT22;6424;48.520;11.228;2024-02-14T13:21:55;12.50;99.90
12720;DHT22;6424;48.520;11.228;2024-02-14T13:24:40;12.60;99.90
12720;DHT22;6424;48.520;11.228;2024-02-14T13:27:24;12.60;99.90
12720;DHT22;6424;48.520;11.228;2024-02-14T13:30:09;12.50;99.90
12720;DHT22;6424;48.520;11.228;2024-02-14T13:32:54;12.30;99.90
12720;DHT22;6424;48.520;11.228;2024-02-14T13:35:38;12.20;99.90
12720;DHT22;6424;48.520;11.228;2024-02-14T13:38:23;12.20;99.90
12720;DHT22;6424;48.520;11.228;2024-02-14T13:41:08;12.20;99.90
12720;DHT22;6424;48.520;11.228;2024-02-14T13:43:52;12.30;99.90
12720;DHT22;6424;48.520;11.228;2024-02-14T13:46:37;12.40;99.90
12720;DHT22;6424;48.520;11.228;2024-02-14T13:49:21;12.50;99.90
12720;DHT22;6424;48.520;11.228;2024-02-14T13:52:07;12.60;99.90
12720;DHT22;6424;48.520;11.228;2024-02-14T13:54:51;12.60;99.90
12720;DHT22;6424;48.520;11.228;2024-02-14T13:57:39;12.60;99.90
12720;DHT22;6424;48.520;11.228;2024-02-14T14:00:23;12.50;99.90
12720;DHT22;6424;48.520;11.228;2024-02-14T14:03:08;12.40;99.90
12720;DHT22;6424;48.520;11.228;2024-02-14T14:05:52;12.40;99.90
12720;DHT22;6424;48.520;11.228;2024-02-14T14:08:37;12.40;99.90
12720;DHT22;6424;48.520;11.228;2024-02-14T14:11:22;12.50;99.90
12720;DHT22;6424;48.520;11.228;2024-02-14T14:14:06;12.50;99.90
12720;DHT22;6424;48.520;11.228;2024-02-14T14:16:52;12.50;99.90
12720;DHT22;6424;48.520;11.228;2024-02-14T14:19:37;12.50;99.90
12720;DHT22;6424;48.520;11.228;2024-02-14T14:22:21;12.40;99.90
12720;DHT22;6424;48.520;11.228;2024-02-14T14:25:06;12.50;99.90
12720;DHT22;6424;48.520;11.228;2024-02-14T14:27:53;12.50;99.90
12720;DHT22;6424;48.520;11.228;2024-02-14T14:30:37;12.60;99.90
12720;DHT22;6424;48.520;11.228;2024-02-14T14:33:25;12.70;99.90
12720;DHT22;6424;48.520;11.228;2024-02-14T14:36:09;12.80;99.90
12720;DHT22;6424;48.520;11.228;2024-02-14T14:38:54;12.80;99.90
12720;DHT22;6424;48.520;11.228;2024-02-14T14:41:38;12.80;99.90
12720;DHT22;6424;48.520;11.228;2024-02-14T14:44:23;12.70;99.90
12720;DHT22;6424;48.520;11.228;2024-02-14T14:47:07;12.60;99.90
12720;DHT22;6424;48.520;11.228;2024-02-14T14:49:51;12.50;99.90
12720;DHT22;6424;48.520;11.228;2024-02-14T14:52:35;12.40;99.90
12720;DHT22;6424;48.520;11.228;2024-02-14T14:55:21;12.30;99.90
12720;DHT22;6424;48.520;11.228;2024-02-14T14:58:13;12.20;99.90
12720;DHT22;6424;48.520;11.228;2024-02-14T15:00:57;12.10;99.90
12720;DHT22;6424;48.520;11.228;2024-02-14T15:03:44;12.10;99.90
12720;DHT22;6424;48.520;11.228;2024-02-14T15:06:29;12.00;99.90
12720;DHT22;6424;48.520;11.228;2024-02-14T15:09:14;12.00;99.90
12720;DHT22;6424;48.520;11.228;2024-02-14T15:11:59;11.90;99.90
12720;DHT22;6424;48.520;11.228;2024-02-14T15:14:43;11.90;99.90
12720;DHT22;6424;48.520;11.228;2024-02-14T15:17:28;11.90;99.90
12720;DHT22;6424;48.520;11.228;2024-02-14T15:20:13;11.90;99.90
12720;DHT22;6424;48.520;11.228;2024-02-14T15:22:58;11.90;99.90
12720;DHT22;6424;48.520;11.228;2024-02-14T15:25:42;11.90;99.90
12720;DHT22;6424;48.520;11.228;2024-02-14T15:28:26;11.80;99.90
12720;DHT22;6424;48.520;11.228;2024-02-14T15:31:11;11.80;99.90
12720;DHT22;6424;48.520;11.228;2024-02-14T15:34:14;11.70;99.90
12720;DHT22;6424;48.520;11.228;2024-02-14T15:36:58;11.60;99.90
12720;DHT22;6424;48.520;11.228;2024-02-14T15:39:42;11.60;99.90
12720;DHT22;6424;48.520;11.228;2024-02-14T15:42:27;11.60;99.90
12720;DHT22;6424;48.520;11.228;2024-02-14T15:45:11;11.60;99.90
12720;DHT22;6424;48.520;11.228;2024-02-14T15:47:59;11.50;99.90
12720;DHT22;6424;48.520;11.228;2024-02-14T15:50:45;11.50;99.90
12720;DHT22;6424;48.520;11.228;2024-02-14T15:53:29;11.50;99.90
12720;DHT22;6424;48.520;11.228;2024-02-14T15:56:15;11.50;99.90
12720;DHT22;6424;48.520;11.228;2024-02-14T15:58:59;11.40;99.90
12720;DHT22;6424;48.520;11.228;2024-02-14T16:01:44;11.40;99.90
12720;DHT22;6424;48.520;11.228;2024-02-14T16:04:28;11.30;99.90
12720;DHT22;6424;48.520;11.228;2024-02-14T16:07:13;11.20;99.90
12720;DHT22;6424;48.520;11.228;2024-02-14T16:09:57;11.10;99.90
12720;DHT22;6424;48.520;11.228;2024-02-14T16:12:43;11.00;99.90
12720;DHT22;6424;48.520;11.228;2024-02-14T16:15:30;11.00;99.90
12720;DHT22;6424;48.520;11.228;2024-02-14T16:18:15;10.90;99.90
12720;DHT22;6424;48.520;11.228;2024-02-14T16:20:59;10.80;99.90
12720;DHT22;6424;48.520;11.228;2024-02-14T16:23:43;10.80;99.90
12720;DHT22;6424;48.520;11.228;2024-02-14T16:26:28;10.70;99.90
12720;DHT22;6424;48.520;11.228;2024-02-14T16:29:13;10.60;99.90
12720;DHT22;6424;48.520;11.228;2024-02-14T16:31:57;10.60;99.90
12720;DHT22;6424;48.520;11.228;2024-02-14T16:34:41;10.50;99.90
12720;DHT22;6424;48.520;11.228;2024-02-14T16:37:28;10.50;99.90
12720;DHT22;6424;48.520;11.228;2024-02-14T16:40:12;10.50;99.90
12720;DHT22;6424;48.520;11.228;2024-02-14T16:42:57;10.40;99.90
12720;DHT22;6424;48.520;11.228;2024-02-14T16:45:42;10.30;99.90
12720;DHT22;6424;48.520;11.228;2024-02-14T16:48:27;10.30;99.90
12720;DHT22;6424;48.520;11.228;2024-02-14T16:51:11;10.20;99.90
12720;DHT22;6424;48.520;11.228;2024-02-14T16:53:57;10.20;99.90
12720;DHT22;6424;48.520;11.228;2024-02-14T16:56:42;10.20;99.90
12720;DHT22;6424;48.520;11.228;2024-02-14T16:59:27;10.20;99.90
12720;DHT22;6424;48.520;11.228;2024-02-14T17:02:12;10.20;99.90
12720;DHT22;6424;48.520;11.228;2024-02-14T17:04:57;10.10;99.90
12720;DHT22;6424;48.520;11.228;2024-02-14T17:07:42;10.10;99.90
12720;DHT22;6424;48.520;11.228;2024-02-14T17:10:26;10.00;99.90
12720;DHT22;6424;48.520;11.228;2024-02-14T17:13:10;10.00;99.90
12720;DHT22;6424;48.520;11.228;2024-02-14T17:15:56;10.00;99.90
12720;DHT22;6424;48.520;11.228;2024-02-14T17:18:41;9.90;99.90
12720;DHT22;6424;48.520;11.228;2024-02-14T17:21:26;9.90;99.90
12720;DHT22;6424;48.520;11.228;2024-02-14T17:24:10;9.80;99.90
12720;DHT22;6424;48.520;11.228;2024-02-14T17:26:54;9.80;99.90
12720;DHT22;6424;48.520;11.228;2024-02-14T17:29:40;9.70;99.90
12720;DHT22;6424;48.520;11.228;2024-02-14T17:32:24;9.70;99.90